createdAt,value
2022-08-25T00:00:23.611Z,0.00
2022-08-25T00:01:23.726Z,0.00
2022-08-25T00:02:23.861Z,0.00
2022-08-25T00:03:23.918Z,0.00
2022-08-25T00:04:24.907Z,0.00
2022-08-25T00:05:24.232Z,0.00
2022-08-25T00:06:24.360Z,0.00
2022-08-25T00:07:24.453Z,0.00
2022-08-25T00:08:24.607Z,0.00
2022-08-25T00:09:24.783Z,0.00
2022-08-25T00:10:24.940Z,0.00
2022-08-25T00:11:25.081Z,0.00
2022-08-25T00:12:25.207Z,0.00
2022-08-25T00:13:25.687Z,0.00
2022-08-25T00:14:25.501Z,0.00
2022-08-25T00:15:25.661Z,0.00
2022-08-25T00:16:25.808Z,0.00
2022-08-25T00:17:25.928Z,0.00
2022-08-25T00:18:26.069Z,0.00
2022-08-25T00:19:26.200Z,0.00
2022-08-25T00:20:26.360Z,0.00
2022-08-25T00:21:26.499Z,0.00
2022-08-25T00:22:26.636Z,0.00
2022-08-25T00:23:26.761Z,0.00
2022-08-25T00:24:26.940Z,0.00
2022-08-25T00:25:27.059Z,0.00
2022-08-25T00:26:27.242Z,0.00
2022-08-25T00:27:27.369Z,0.00
2022-08-25T00:28:27.500Z,0.00
2022-08-25T00:29:27.640Z,0.00
2022-08-25T00:30:27.781Z,0.00
2022-08-25T00:31:37.716Z,0.00
2022-08-25T00:32:29.109Z,0.00
2022-08-25T00:33:28.285Z,0.00
2022-08-25T00:34:28.430Z,0.00
2022-08-25T00:35:28.510Z,0.00
2022-08-25T00:36:28.646Z,0.00
2022-08-25T00:37:28.799Z,0.00
2022-08-25T00:38:28.942Z,0.00
2022-08-25T00:39:29.070Z,0.00
2022-08-25T00:40:29.274Z,0.00
2022-08-25T00:41:29.333Z,0.00
2022-08-25T00:42:29.497Z,0.00
2022-08-25T00:43:29.618Z,0.00
2022-08-25T00:44:29.772Z,0.00
2022-08-25T00:45:29.899Z,0.00
2022-08-25T00:46:30.107Z,0.00
2022-08-25T00:47:30.199Z,0.00
2022-08-25T00:48:30.339Z,0.00
2022-08-25T00:49:30.459Z,0.00
2022-08-25T00:50:30.598Z,0.00
2022-08-25T00:51:30.750Z,0.00
2022-08-25T00:52:30.913Z,0.00
2022-08-25T00:53:31.039Z,0.00
2022-08-25T00:54:31.173Z,0.00
2022-08-25T00:55:31.298Z,0.00
2022-08-25T00:56:31.561Z,0.00
2022-08-25T00:57:34.686Z,0.00
2022-08-25T00:58:31.730Z,0.00
2022-08-25T00:59:31.858Z,0.00
2022-08-25T01:00:31.999Z,0.00
2022-08-25T01:01:32.205Z,0.00
2022-08-25T01:02:32.367Z,0.00
2022-08-25T01:03:33.137Z,0.00
2022-08-25T01:04:32.620Z,0.00
2022-08-25T01:05:32.721Z,0.00
2022-08-25T01:06:32.860Z,0.00
2022-08-25T01:07:33.019Z,0.00
2022-08-25T01:08:33.158Z,0.00
2022-08-25T01:09:33.322Z,0.00
2022-08-25T01:10:33.451Z,0.00
2022-08-25T01:11:33.580Z,0.00
2022-08-25T01:12:33.728Z,0.00
2022-08-25T01:13:33.829Z,0.00
2022-08-25T01:14:33.959Z,0.00
2022-08-25T01:15:34.166Z,0.00
2022-08-25T01:16:34.261Z,0.00
2022-08-25T01:17:34.422Z,0.00
2022-08-25T01:18:34.568Z,0.00
2022-08-25T01:19:34.721Z,0.00
2022-08-25T01:20:34.863Z,0.00
2022-08-25T01:21:34.988Z,0.00
2022-08-25T01:22:35.128Z,0.00
2022-08-25T01:23:35.218Z,0.00
2022-08-25T01:24:35.363Z,0.00
2022-08-25T01:25:35.513Z,0.00
2022-08-25T01:26:35.640Z,0.00
2022-08-25T01:27:35.792Z,0.00
2022-08-25T01:28:35.910Z,0.00
2022-08-25T01:29:36.054Z,0.00
2022-08-25T01:30:36.211Z,0.00
2022-08-25T01:31:36.308Z,0.00
2022-08-25T01:32:36.622Z,0.00
2022-08-25T01:33:36.590Z,0.00
2022-08-25T01:34:36.737Z,0.00
2022-08-25T01:35:36.877Z,0.00
2022-08-25T01:36:37.010Z,0.00
2022-08-25T01:37:37.168Z,0.00
2022-08-25T01:38:37.281Z,0.00
2022-08-25T01:39:37.442Z,0.00
2022-08-25T01:40:37.590Z,0.00
2022-08-25T01:41:37.689Z,0.00
2022-08-25T01:42:37.823Z,0.00
2022-08-25T01:43:37.943Z,0.00
2022-08-25T01:44:38.102Z,0.00
2022-08-25T01:45:38.238Z,0.00
2022-08-25T01:46:38.411Z,0.00
2022-08-25T01:47:38.568Z,0.00
2022-08-25T01:48:38.637Z,0.00
2022-08-25T01:49:38.823Z,0.00
2022-08-25T01:50:38.966Z,0.00
2022-08-25T01:51:39.052Z,0.00
2022-08-25T01:52:39.174Z,0.00
2022-08-25T01:53:39.246Z,0.00
2022-08-25T01:54:39.411Z,0.00
2022-08-25T01:55:39.544Z,0.00
2022-08-25T01:56:39.674Z,0.00
2022-08-25T01:57:39.750Z,0.00
2022-08-25T01:58:39.904Z,0.00
2022-08-25T01:59:40.004Z,0.00
2022-08-25T02:00:40.142Z,0.00
2022-08-25T02:01:40.310Z,0.00
2022-08-25T02:02:42.720Z,0.00
2022-08-25T02:03:42.062Z,0.00
2022-08-25T02:04:40.774Z,0.00
2022-08-25T02:05:40.727Z,0.00
2022-08-25T02:06:40.873Z,0.00
2022-08-25T02:07:41.085Z,0.00
2022-08-25T02:08:41.151Z,0.00
2022-08-25T02:09:41.259Z,0.00
2022-08-25T02:10:41.400Z,0.00
2022-08-25T02:11:41.521Z,0.00
2022-08-25T02:12:41.667Z,0.00
2022-08-25T02:13:41.792Z,0.00
2022-08-25T02:14:41.922Z,0.00
2022-08-25T02:15:42.040Z,0.00
2022-08-25T02:16:42.284Z,0.00
2022-08-25T02:17:42.303Z,0.00
2022-08-25T02:18:42.432Z,0.00
2022-08-25T02:19:42.562Z,0.00
2022-08-25T02:20:42.702Z,0.00
2022-08-25T02:21:42.826Z,0.00
2022-08-25T02:22:43.435Z,0.00
2022-08-25T02:23:44.068Z,0.00
2022-08-25T02:24:43.198Z,0.00
2022-08-25T02:25:43.343Z,0.00
2022-08-25T02:26:43.529Z,0.00
2022-08-25T02:27:43.601Z,0.00
2022-08-25T02:28:43.743Z,0.00
2022-08-25T02:29:43.835Z,0.00
2022-08-25T02:30:44.083Z,0.00
2022-08-25T02:31:44.141Z,0.00
2022-08-25T02:32:44.243Z,0.00
2022-08-25T02:33:44.384Z,0.00
2022-08-25T02:34:44.504Z,0.00
2022-08-25T02:35:44.670Z,0.00
2022-08-25T02:36:44.856Z,0.00
2022-08-25T02:37:44.919Z,0.00
2022-08-25T02:38:45.043Z,0.00
2022-08-25T02:39:45.203Z,0.00
2022-08-25T02:40:45.323Z,0.00
2022-08-25T02:41:47.426Z,0.00
2022-08-25T02:42:45.671Z,0.00
2022-08-25T02:43:45.754Z,0.00
2022-08-25T02:44:45.910Z,0.00
2022-08-25T02:45:46.095Z,0.00
2022-08-25T02:46:46.193Z,0.00
2022-08-25T02:47:46.288Z,0.00
2022-08-25T02:48:46.419Z,0.00
2022-08-25T02:49:46.551Z,0.00
2022-08-25T02:50:46.689Z,0.00
2022-08-25T02:51:46.819Z,0.00
2022-08-25T02:52:46.931Z,0.00
2022-08-25T02:53:47.051Z,0.00
2022-08-25T02:54:47.206Z,0.00
2022-08-25T02:55:47.311Z,0.00
2022-08-25T02:56:47.401Z,0.00
2022-08-25T02:57:47.521Z,0.00
2022-08-25T02:58:47.652Z,0.00
2022-08-25T02:59:47.797Z,0.00
2022-08-25T03:00:48.004Z,0.00
2022-08-25T03:01:48.110Z,0.00
2022-08-25T03:02:48.243Z,0.00
2022-08-25T03:03:48.401Z,0.00
2022-08-25T03:04:48.583Z,0.00
2022-08-25T03:05:48.609Z,0.00
2022-08-25T03:06:48.732Z,0.00
2022-08-25T03:07:48.864Z,0.00
2022-08-25T03:08:49.001Z,0.00
2022-08-25T03:09:49.171Z,0.00
2022-08-25T03:10:49.360Z,0.00
2022-08-25T03:11:49.444Z,0.00
2022-08-25T03:12:49.774Z,0.00
2022-08-25T03:13:49.684Z,0.00
2022-08-25T03:14:49.841Z,0.00
2022-08-25T03:15:50.005Z,0.00
2022-08-25T03:16:50.231Z,0.00
2022-08-25T03:17:50.645Z,0.00
2022-08-25T03:18:50.383Z,0.00
2022-08-25T03:19:50.564Z,0.00
2022-08-25T03:20:50.676Z,0.00
2022-08-25T03:21:50.813Z,0.00
2022-08-25T03:22:50.964Z,0.00
2022-08-25T03:23:51.103Z,0.00
2022-08-25T03:24:51.253Z,0.00
2022-08-25T03:25:51.426Z,0.00
2022-08-25T03:26:51.530Z,0.00
2022-08-25T03:27:51.711Z,0.00
2022-08-25T03:28:51.875Z,0.00
2022-08-25T03:29:52.024Z,0.00
2022-08-25T03:30:55.818Z,0.00
2022-08-25T03:31:52.320Z,0.00
2022-08-25T03:32:52.391Z,0.00
2022-08-25T03:33:52.536Z,0.00
2022-08-25T03:34:52.691Z,0.00
2022-08-25T03:35:52.842Z,0.00
2022-08-25T03:36:52.944Z,0.00
2022-08-25T03:37:53.085Z,0.00
2022-08-25T03:38:53.251Z,0.00
2022-08-25T03:39:53.407Z,0.00
2022-08-25T03:40:53.514Z,0.00
2022-08-25T03:41:53.645Z,0.00
2022-08-25T03:42:53.771Z,0.00
2022-08-25T03:43:53.931Z,0.00
2022-08-25T03:44:54.073Z,0.00
2022-08-25T03:45:54.253Z,0.00
2022-08-25T03:46:54.332Z,0.00
2022-08-25T03:47:54.472Z,0.00
2022-08-25T03:48:54.632Z,0.00
2022-08-25T03:49:54.713Z,0.00
2022-08-25T03:50:54.904Z,0.00
2022-08-25T03:51:54.991Z,0.00
2022-08-25T03:52:55.153Z,0.00
2022-08-25T03:53:55.293Z,0.00
2022-08-25T03:54:55.415Z,0.00
2022-08-25T03:55:55.576Z,0.00
2022-08-25T03:56:55.722Z,0.00
2022-08-25T03:57:55.853Z,4.00
2022-08-25T03:58:55.985Z,4.00
2022-08-25T03:59:56.144Z,0.00
2022-08-25T04:00:56.295Z,4.00
2022-08-25T04:01:56.454Z,4.00
2022-08-25T04:02:56.584Z,4.00
2022-08-25T04:03:56.717Z,4.00
2022-08-25T04:04:56.894Z,4.00
2022-08-25T04:05:57.007Z,4.00
2022-08-25T04:06:57.084Z,4.00
2022-08-25T04:07:57.216Z,8.00
2022-08-25T04:08:57.340Z,8.00
2022-08-25T04:09:57.593Z,8.00
2022-08-25T04:10:57.592Z,16.00
2022-08-25T04:11:57.693Z,16.00
2022-08-25T04:12:57.831Z,16.00
2022-08-25T04:13:57.972Z,24.00
2022-08-25T04:14:58.117Z,28.00
2022-08-25T04:15:58.286Z,32.00
2022-08-25T04:16:58.479Z,36.00
2022-08-25T04:17:58.564Z,40.00
2022-08-25T04:18:58.724Z,48.00
2022-08-25T04:19:58.881Z,56.00
2022-08-25T04:20:59.034Z,64.00
2022-08-25T04:21:59.205Z,72.00
2022-08-25T04:22:59.264Z,84.00
2022-08-25T04:23:59.404Z,92.00
2022-08-25T04:24:59.535Z,108.00
2022-08-25T04:25:59.634Z,120.00
2022-08-25T04:26:59.749Z,136.00
2022-08-25T04:27:59.847Z,148.00
2022-08-25T04:29:00.004Z,168.00
2022-08-25T04:30:00.143Z,184.00
2022-08-25T04:31:00.261Z,200.00
2022-08-25T04:32:00.430Z,224.00
2022-08-25T04:33:00.474Z,244.00
2022-08-25T04:34:00.615Z,268.00
2022-08-25T04:35:00.765Z,292.00
2022-08-25T04:36:00.875Z,320.00
2022-08-25T04:37:00.988Z,344.00
2022-08-25T04:38:01.122Z,368.00
2022-08-25T04:39:01.270Z,400.00
2022-08-25T04:40:01.507Z,428.00
2022-08-25T04:41:01.524Z,456.00
2022-08-25T04:42:01.699Z,492.00
2022-08-25T04:43:01.764Z,520.00
2022-08-25T04:44:01.902Z,556.00
2022-08-25T04:45:02.044Z,588.00
2022-08-25T04:46:02.949Z,624.00
2022-08-25T04:47:02.294Z,656.00
2022-08-25T04:48:02.462Z,688.00
2022-08-25T04:49:02.568Z,720.00
2022-08-25T04:50:02.754Z,760.00
2022-08-25T04:51:02.904Z,796.00
2022-08-25T04:52:03.029Z,828.00
2022-08-25T04:53:03.163Z,864.00
2022-08-25T04:54:03.245Z,900.00
2022-08-25T04:55:03.382Z,936.00
2022-08-25T04:56:04.070Z,972.00
2022-08-25T04:57:03.641Z,1004.00
2022-08-25T04:58:03.805Z,1036.00
2022-08-25T04:59:03.847Z,1076.00
2022-08-25T05:00:03.959Z,1112.00
2022-08-25T05:01:04.882Z,1148.00
2022-08-25T05:02:04.267Z,1180.00
2022-08-25T05:03:05.083Z,1216.00
2022-08-25T05:04:04.519Z,1248.00
2022-08-25T05:05:04.603Z,1280.00
2022-08-25T05:06:04.774Z,1316.00
2022-08-25T05:07:04.864Z,1348.00
2022-08-25T05:08:05.233Z,1376.00
2022-08-25T05:09:05.122Z,1412.00
2022-08-25T05:10:05.296Z,1440.00
2022-08-25T05:11:05.396Z,1476.00
2022-08-25T05:12:05.552Z,1504.00
2022-08-25T05:13:05.623Z,1532.00
2022-08-25T05:14:05.754Z,1560.00
2022-08-25T05:15:05.857Z,1588.00
2022-08-25T05:16:06.062Z,1616.00
2022-08-25T05:17:06.203Z,1644.00
2022-08-25T05:18:06.284Z,1668.00
2022-08-25T05:19:06.377Z,1692.00
2022-08-25T05:20:06.553Z,1720.00
2022-08-25T05:21:06.716Z,1744.00
2022-08-25T05:22:06.831Z,1768.00
2022-08-25T05:23:06.925Z,1792.00
2022-08-25T05:24:07.385Z,1812.00
2022-08-25T05:25:07.144Z,1836.00
2022-08-25T05:26:07.296Z,1864.00
2022-08-25T05:27:07.414Z,1888.00
2022-08-25T05:28:07.527Z,1912.00
2022-08-25T05:29:07.640Z,1936.00
2022-08-25T05:30:07.747Z,1956.00
2022-08-25T05:31:07.926Z,1984.00
2022-08-25T05:32:08.072Z,1996.00
2022-08-25T05:33:08.126Z,2028.00
2022-08-25T05:34:08.276Z,2048.00
2022-08-25T05:35:08.419Z,2064.00
2022-08-25T05:36:08.574Z,2088.00
2022-08-25T05:37:12.041Z,2108.00
2022-08-25T05:38:08.814Z,2128.00
2022-08-25T05:39:09.967Z,2148.00
2022-08-25T05:40:09.213Z,2164.00
2022-08-25T05:41:09.183Z,2188.00
2022-08-25T05:42:09.310Z,2204.00
2022-08-25T05:43:09.455Z,2216.00
2022-08-25T05:44:09.618Z,2232.00
2022-08-25T05:45:09.774Z,2252.00
2022-08-25T05:46:10.924Z,2264.00
2022-08-25T05:47:10.016Z,2280.00
2022-08-25T05:48:10.168Z,2296.00
2022-08-25T05:49:10.265Z,2308.00
2022-08-25T05:50:10.415Z,2324.00
2022-08-25T05:51:10.810Z,2336.00
2022-08-25T05:52:11.870Z,2352.00
2022-08-25T05:53:10.794Z,2360.00
2022-08-25T05:54:10.955Z,2372.00
2022-08-25T05:55:11.065Z,2384.00
2022-08-25T05:56:11.212Z,2400.00
2022-08-25T05:57:11.284Z,2408.00
2022-08-25T05:58:11.436Z,2416.00
2022-08-25T05:59:11.544Z,2424.00
2022-08-25T06:00:11.693Z,2436.00
2022-08-25T06:01:11.815Z,2440.00
2022-08-25T06:02:11.926Z,2452.00
2022-08-25T06:03:12.075Z,2464.00
2022-08-25T06:04:12.167Z,2472.00
2022-08-25T06:05:12.285Z,2476.00
2022-08-25T06:06:12.383Z,2488.00
2022-08-25T06:07:12.637Z,2500.00
2022-08-25T06:08:12.584Z,2512.00
2022-08-25T06:09:12.729Z,2524.00
2022-08-25T06:10:12.886Z,2528.00
2022-08-25T06:11:12.983Z,2544.00
2022-08-25T06:12:13.140Z,2556.00
2022-08-25T06:13:13.251Z,2568.00
2022-08-25T06:14:13.362Z,2580.00
2022-08-25T06:15:13.506Z,2576.00
2022-08-25T06:16:13.752Z,2584.00
2022-08-25T06:17:13.775Z,2604.00
2022-08-25T06:18:13.915Z,2612.00
2022-08-25T06:19:14.065Z,2632.00
2022-08-25T06:20:14.181Z,2632.00
2022-08-25T06:21:14.296Z,2640.00
2022-08-25T06:22:14.455Z,2644.00
2022-08-25T06:23:14.538Z,2652.00
2022-08-25T06:24:15.719Z,2664.00
2022-08-25T06:25:14.809Z,2660.00
2022-08-25T06:26:20.733Z,2676.00
2022-08-25T06:27:16.059Z,2684.00
2022-08-25T06:28:15.154Z,2688.00
2022-08-25T06:29:15.246Z,2692.00
2022-08-25T06:30:16.189Z,2704.00
2022-08-25T06:31:15.532Z,2700.00
2022-08-25T06:32:15.651Z,2716.00
2022-08-25T06:33:15.751Z,2724.00
2022-08-25T06:34:15.888Z,2728.00
2022-08-25T06:35:16.061Z,2740.00
2022-08-25T06:36:16.144Z,2748.00
2022-08-25T06:37:16.268Z,2748.00
2022-08-25T06:38:16.408Z,2756.00
2022-08-25T06:39:16.559Z,2760.00
2022-08-25T06:40:16.804Z,2764.00
2022-08-25T06:41:16.800Z,2768.00
2022-08-25T06:42:16.956Z,2780.00
2022-08-25T06:43:17.039Z,2776.00
2022-08-25T06:44:17.186Z,2788.00
2022-08-25T06:45:17.299Z,2800.00
2022-08-25T06:46:17.472Z,2792.00
2022-08-25T06:47:17.574Z,2800.00
2022-08-25T06:48:17.660Z,2800.00
2022-08-25T06:49:17.797Z,2804.00
2022-08-25T06:50:17.957Z,2812.00
2022-08-25T06:51:18.053Z,2816.00
2022-08-25T06:52:18.168Z,2816.00
2022-08-25T06:53:18.253Z,2824.00
2022-08-25T06:54:18.401Z,2824.00
2022-08-25T06:55:18.520Z,2840.00
2022-08-25T06:56:18.679Z,2848.00
2022-08-25T06:57:18.810Z,2852.00
2022-08-25T06:58:18.957Z,2868.00
2022-08-25T06:59:19.059Z,2872.00
2022-08-25T07:00:19.228Z,2884.00
2022-08-25T07:01:20.028Z,2888.00
2022-08-25T07:02:22.168Z,2904.00
2022-08-25T07:03:19.571Z,2904.00
2022-08-25T07:04:19.707Z,2916.00
2022-08-25T07:05:27.316Z,2920.00
2022-08-25T07:06:20.988Z,2932.00
2022-08-25T07:07:20.115Z,2944.00
2022-08-25T07:08:20.255Z,2952.00
2022-08-25T07:09:20.389Z,2960.00
2022-08-25T07:10:20.557Z,2972.00
2022-08-25T07:11:20.627Z,2984.00
2022-08-25T07:12:20.788Z,2992.00
2022-08-25T07:13:20.892Z,3000.00
2022-08-25T07:14:21.029Z,3028.00
2022-08-25T07:15:21.282Z,3032.00
2022-08-25T07:16:21.364Z,3032.00
2022-08-25T07:17:21.425Z,3060.00
2022-08-25T07:18:21.590Z,3072.00
2022-08-25T07:19:21.665Z,3088.00
2022-08-25T07:21:24.993Z,3116.00
2022-08-25T07:22:23.090Z,3136.00
2022-08-25T07:23:22.169Z,3160.00
2022-08-25T07:24:22.301Z,3160.00
2022-08-25T07:25:22.452Z,3172.00
2022-08-25T07:26:38.948Z,3192.00
2022-08-25T07:27:23.710Z,3212.00
2022-08-25T07:28:22.849Z,3228.00
2022-08-25T07:29:32.214Z,3240.00
2022-08-25T07:30:24.150Z,3260.00
2022-08-25T07:31:23.252Z,3284.00
2022-08-25T07:32:24.338Z,3296.00
2022-08-25T07:33:23.479Z,3320.00
2022-08-25T07:34:23.609Z,3344.00
2022-08-25T07:35:24.145Z,3368.00
2022-08-25T07:36:23.879Z,3388.00
2022-08-25T07:37:47.729Z,3404.00
2022-08-25T07:38:25.110Z,3424.00
2022-08-25T07:39:24.279Z,3448.00
2022-08-25T07:40:24.490Z,3484.00
2022-08-25T07:41:24.590Z,3516.00
2022-08-25T07:42:24.643Z,3552.00
2022-08-25T07:43:24.800Z,3576.00
2022-08-25T07:44:28.007Z,3620.00
2022-08-25T07:45:32.104Z,3648.00
2022-08-25T07:46:25.222Z,3680.00
2022-08-25T07:47:25.223Z,3716.00
2022-08-25T07:48:25.323Z,3740.00
2022-08-25T07:49:25.497Z,3764.00
2022-08-25T07:50:25.585Z,3788.00
2022-08-25T07:52:25.815Z,3836.00
2022-08-25T07:53:25.967Z,3888.00
2022-08-25T07:54:34.076Z,3984.00
2022-08-25T07:55:27.263Z,4568.00
2022-08-25T07:56:26.335Z,5672.00
2022-08-25T07:57:26.582Z,6356.00
2022-08-25T07:58:26.617Z,6352.00
2022-08-25T07:59:26.756Z,6120.00
2022-08-25T08:00:26.855Z,5976.00
2022-08-25T08:01:27.084Z,6032.00
2022-08-25T08:02:27.160Z,5880.00
2022-08-25T08:03:45.329Z,5780.00
2022-08-25T08:04:28.397Z,5796.00
2022-08-25T08:05:27.521Z,5692.00
2022-08-25T08:06:27.629Z,5392.00
2022-08-25T08:07:43.199Z,5392.00
2022-08-25T08:08:28.899Z,5600.00
2022-08-25T08:09:28.043Z,5928.00
2022-08-25T08:11:03.273Z,5708.00
2022-08-25T08:11:29.279Z,5304.00
2022-08-25T08:12:28.454Z,5160.00
2022-08-25T08:13:28.624Z,5060.00
2022-08-25T08:14:28.668Z,4940.00
2022-08-25T08:15:29.898Z,4832.00
2022-08-25T08:16:28.985Z,4800.00
2022-08-25T08:17:29.037Z,4772.00
2022-08-25T08:18:29.168Z,4788.00
2022-08-25T08:19:29.289Z,4804.00
2022-08-25T08:20:29.438Z,4800.00
2022-08-25T08:21:30.579Z,4812.00
2022-08-25T08:22:29.654Z,4832.00
2022-08-25T08:23:29.795Z,4836.00
2022-08-25T08:24:44.179Z,4844.00
2022-08-25T08:25:31.066Z,4848.00
2022-08-25T08:26:55.235Z,4844.00
2022-08-25T08:27:31.327Z,4840.00
2022-08-25T08:28:30.464Z,4852.00
2022-08-25T08:29:31.571Z,4852.00
2022-08-25T08:30:30.733Z,4848.00
2022-08-25T08:31:30.890Z,4876.00
2022-08-25T08:32:40.677Z,4880.00
2022-08-25T08:33:32.106Z,4908.00
2022-08-25T08:34:32.226Z,4928.00
2022-08-25T08:35:31.403Z,4948.00
2022-08-25T08:36:31.458Z,4964.00
2022-08-25T08:37:31.608Z,4992.00
2022-08-25T08:38:31.764Z,5000.00
2022-08-25T08:39:31.871Z,5028.00
2022-08-25T08:40:32.030Z,5052.00
2022-08-25T08:41:40.165Z,5084.00
2022-08-25T08:42:33.220Z,5104.00
2022-08-25T08:43:33.414Z,5136.00
2022-08-25T08:44:32.468Z,5168.00
2022-08-25T08:45:35.603Z,5180.00
2022-08-25T08:46:33.760Z,5220.00
2022-08-25T08:47:32.828Z,5260.00
2022-08-25T08:48:32.920Z,5316.00
2022-08-25T08:49:33.066Z,5396.00
2022-08-25T08:50:33.484Z,5540.00
2022-08-25T08:51:33.489Z,5732.00
2022-08-25T08:52:33.496Z,5852.00
2022-08-25T08:53:34.109Z,5952.00
2022-08-25T08:54:34.223Z,5980.00
2022-08-25T08:55:33.780Z,6004.00
2022-08-25T08:56:33.888Z,6008.00
2022-08-25T08:57:34.014Z,6012.00
2022-08-25T08:58:34.114Z,6020.00
2022-08-25T08:59:34.266Z,6028.00
2022-08-25T09:00:34.392Z,6064.00
2022-08-25T09:01:34.681Z,6112.00
2022-08-25T09:02:38.539Z,6144.00
2022-08-25T09:03:35.850Z,6200.00
2022-08-25T09:04:34.882Z,6280.00
2022-08-25T09:05:41.021Z,6380.00
2022-08-25T09:06:36.151Z,6540.00
2022-08-25T09:07:35.296Z,6852.00
2022-08-25T09:08:35.363Z,7564.00
2022-08-25T09:09:36.113Z,8088.00
2022-08-25T09:10:35.591Z,8300.00
2022-08-25T09:11:35.731Z,9548.00
2022-08-25T09:12:35.915Z,13176.00
2022-08-25T09:13:35.962Z,22240.00
2022-08-25T09:14:36.062Z,18560.00
2022-08-25T09:15:41.076Z,12648.00
2022-08-25T09:16:37.342Z,10704.00
2022-08-25T09:17:36.450Z,9496.00
2022-08-25T09:18:41.084Z,9464.00
2022-08-25T09:19:37.644Z,9280.00
2022-08-25T09:20:36.753Z,8452.00
2022-08-25T09:21:36.891Z,8664.00
2022-08-25T09:22:37.078Z,8652.00
2022-08-25T09:23:37.153Z,8632.00
2022-08-25T09:24:37.304Z,8680.00
2022-08-25T09:25:53.072Z,8804.00
2022-08-25T09:26:38.539Z,8452.00
2022-08-25T09:27:37.704Z,8292.00
2022-08-25T09:28:37.870Z,8032.00
2022-08-25T09:29:37.955Z,8128.00
2022-08-25T09:30:38.103Z,9112.00
2022-08-25T09:31:38.308Z,9212.00
2022-08-25T09:32:38.368Z,8768.00
2022-08-25T09:33:38.512Z,8964.00
2022-08-25T09:34:38.601Z,9124.00
2022-08-25T09:35:38.745Z,8964.00
2022-08-25T09:36:38.874Z,9596.00
2022-08-25T09:37:38.976Z,9756.00
2022-08-25T09:38:39.213Z,9160.00
2022-08-25T09:39:39.238Z,9536.00
2022-08-25T09:40:39.334Z,9608.00
2022-08-25T09:41:39.457Z,9692.00
2022-08-25T09:42:39.556Z,9868.00
2022-08-25T09:43:39.734Z,10192.00
2022-08-25T09:44:39.826Z,10580.00
2022-08-25T09:45:39.965Z,10136.00
2022-08-25T09:46:40.121Z,10332.00
2022-08-25T09:47:40.175Z,10528.00
2022-08-25T09:48:40.977Z,11156.00
2022-08-25T09:49:40.386Z,11316.00
2022-08-25T09:50:45.585Z,12992.00
2022-08-25T09:51:42.995Z,21184.00
2022-08-25T09:52:41.449Z,21568.00
2022-08-25T09:53:40.965Z,18144.00
2022-08-25T09:54:43.968Z,18144.00
2022-08-25T09:55:41.199Z,15936.00
2022-08-25T09:56:41.291Z,17536.00
2022-08-25T09:57:41.405Z,19328.00
2022-08-25T09:58:41.523Z,22944.00
2022-08-25T09:59:41.675Z,23168.00
2022-08-25T10:00:42.755Z,19136.00
2022-08-25T10:01:41.909Z,18912.00
2022-08-25T10:02:42.126Z,18816.00
2022-08-25T10:03:42.167Z,22656.00
2022-08-25T10:04:42.363Z,22016.00
2022-08-25T10:05:42.407Z,21184.00
2022-08-25T10:06:42.553Z,23360.00
2022-08-25T10:07:42.703Z,20640.00
2022-08-25T10:08:42.801Z,19968.00
2022-08-25T10:09:42.967Z,20672.00
2022-08-25T10:10:43.079Z,22112.00
2022-08-25T10:11:43.523Z,25632.00
2022-08-25T10:12:43.327Z,25856.00
2022-08-25T10:13:43.456Z,23232.00
2022-08-25T10:14:44.547Z,24256.00
2022-08-25T10:15:43.816Z,24192.00
2022-08-25T10:16:46.874Z,23552.00
2022-08-25T10:17:43.929Z,24224.00
2022-08-25T10:18:44.041Z,27328.00
2022-08-25T10:19:44.420Z,27776.00
2022-08-25T10:20:44.745Z,27136.00
2022-08-25T10:21:44.418Z,29632.00
2022-08-25T10:22:44.543Z,31904.00
2022-08-25T10:23:44.728Z,33664.00
2022-08-25T10:24:44.789Z,32864.00
2022-08-25T10:25:58.933Z,32672.00
2022-08-25T10:26:46.057Z,33248.00
2022-08-25T10:27:45.228Z,35424.00
2022-08-25T10:28:45.328Z,36000.00
2022-08-25T10:29:45.493Z,38784.00
2022-08-25T10:30:45.660Z,39264.00
2022-08-25T10:31:45.739Z,35840.00
2022-08-25T10:32:45.852Z,36832.00
2022-08-25T10:33:46.017Z,38880.00
2022-08-25T10:34:46.111Z,43328.00
2022-08-25T10:35:47.241Z,43200.00
2022-08-25T10:36:46.935Z,46208.00
2022-08-25T10:37:46.479Z,43616.00
2022-08-25T10:38:46.600Z,41600.00
2022-08-25T10:39:46.770Z,41216.00
2022-08-25T10:40:47.850Z,42848.00
2022-08-25T10:41:46.958Z,50496.00
2022-08-25T10:42:47.113Z,53056.00
2022-08-25T10:43:47.199Z,51712.00
2022-08-25T10:44:47.311Z,56000.00
2022-08-25T10:45:47.523Z,58720.00
2022-08-25T10:46:47.577Z,51520.00
2022-08-25T10:47:47.737Z,47840.00
2022-08-25T10:48:47.832Z,53312.00
2022-08-25T10:49:50.086Z,57536.00
2022-08-25T10:50:49.012Z,64448.00
2022-08-25T10:51:51.170Z,61056.00
2022-08-25T10:52:48.272Z,57280.00
2022-08-25T10:53:49.096Z,63392.00
2022-08-25T10:54:48.532Z,63616.00
2022-08-25T10:55:48.700Z,59712.00
2022-08-25T10:56:48.843Z,59104.00
2022-08-25T10:57:48.959Z,53952.00
2022-08-25T10:58:49.091Z,53984.00
2022-08-25T10:59:49.225Z,63072.00
2022-08-25T11:00:49.335Z,56160.00
2022-08-25T11:01:53.677Z,49952.00
2022-08-25T11:02:49.620Z,58816.00
2022-08-25T11:03:49.746Z,54784.00
2022-08-25T11:04:49.910Z,48512.00
2022-08-25T11:05:50.040Z,48160.00
2022-08-25T11:06:53.054Z,50176.00
2022-08-25T11:07:50.301Z,57024.00
2022-08-25T11:08:50.390Z,52576.00
2022-08-25T11:09:50.509Z,56000.00
2022-08-25T11:10:50.623Z,53984.00
2022-08-25T11:11:50.770Z,54400.00
2022-08-25T11:12:50.912Z,53056.00
2022-08-25T11:13:50.988Z,57408.00
2022-08-25T11:14:51.109Z,53600.00
2022-08-25T11:16:13.767Z,53856.00
2022-08-25T11:16:52.379Z,59936.00
2022-08-25T11:17:51.463Z,59712.00
2022-08-25T11:18:51.723Z,56096.00
2022-08-25T11:19:51.721Z,55008.00
2022-08-25T11:20:51.882Z,55456.00
2022-08-25T11:21:51.972Z,55680.00
2022-08-25T11:22:52.133Z,57216.00
2022-08-25T11:23:52.243Z,52128.00
2022-08-25T11:24:52.349Z,50976.00
2022-08-25T11:25:52.483Z,53760.00
2022-08-25T11:26:52.595Z,56416.00
2022-08-25T11:27:52.714Z,57472.00
2022-08-25T11:28:52.830Z,59232.00
2022-08-25T11:29:52.953Z,59296.00
2022-08-25T11:30:53.145Z,54624.00
2022-08-25T11:31:53.919Z,51040.00
2022-08-25T11:32:53.311Z,57088.00
2022-08-25T11:33:53.504Z,59840.00
2022-08-25T11:34:53.584Z,61792.00
2022-08-25T11:35:53.767Z,60000.00
2022-08-25T11:36:54.057Z,52544.00
2022-08-25T11:37:53.993Z,48576.00
2022-08-25T11:38:54.097Z,47104.00
2022-08-25T11:39:54.249Z,48832.00
2022-08-25T11:40:54.373Z,54208.00
2022-08-25T11:41:54.513Z,59232.00
2022-08-25T11:42:54.633Z,61664.00
2022-08-25T11:43:54.748Z,60448.00
2022-08-25T11:44:55.099Z,55168.00
2022-08-25T11:45:55.106Z,55328.00
2022-08-25T11:46:55.093Z,56320.00
2022-08-25T11:47:55.232Z,57376.00
2022-08-25T11:48:55.392Z,55712.00
2022-08-25T11:49:55.502Z,53824.00
2022-08-25T11:50:55.643Z,53504.00
2022-08-25T11:51:55.752Z,54176.00
2022-08-25T11:52:56.925Z,57472.00
2022-08-25T11:53:56.011Z,57568.00
2022-08-25T11:54:56.143Z,57024.00
2022-08-25T11:55:56.302Z,58560.00
2022-08-25T11:56:56.389Z,58784.00
2022-08-25T11:57:56.503Z,56192.00
2022-08-25T11:58:56.636Z,55584.00
2022-08-25T11:59:57.481Z,55200.00
2022-08-25T12:00:56.884Z,55968.00
2022-08-25T12:01:57.015Z,57024.00
2022-08-25T12:03:01.288Z,55776.00
2022-08-25T12:03:57.292Z,55680.00
2022-08-25T12:04:57.576Z,59456.00
2022-08-25T12:05:57.498Z,63264.00
2022-08-25T12:06:57.624Z,60416.00
2022-08-25T12:07:57.742Z,61472.00
2022-08-25T12:08:57.929Z,61760.00
2022-08-25T12:09:58.050Z,60608.00
2022-08-25T12:10:58.910Z,60160.00
2022-08-25T12:11:58.274Z,57216.00
2022-08-25T12:12:58.363Z,56608.00
2022-08-25T12:13:58.832Z,58720.00
2022-08-25T12:14:58.644Z,60128.00
2022-08-25T12:15:58.759Z,59200.00
2022-08-25T12:16:58.874Z,59328.00
2022-08-25T12:18:03.299Z,61440.00
2022-08-25T12:19:00.094Z,61280.00
2022-08-25T12:19:59.200Z,64000.00
2022-08-25T12:20:59.364Z,65056.00
2022-08-25T12:21:59.452Z,63488.00
2022-08-25T12:22:59.600Z,60992.00
2022-08-25T12:23:59.698Z,59520.00
2022-08-25T12:24:59.832Z,61184.00
2022-08-25T12:25:59.959Z,63328.00
2022-08-25T12:27:00.066Z,63328.00
2022-08-25T12:28:00.296Z,66368.00
2022-08-25T12:29:00.313Z,67712.00